createdAt,value
2023-04-16T00:02:01.300Z,2.20
2023-04-16T00:04:28.376Z,2.28
2023-04-16T00:06:55.509Z,2.50
2023-04-16T00:09:22.348Z,2.58
2023-04-16T00:11:49.266Z,2.05
2023-04-16T00:14:16.192Z,2.47
2023-04-16T00:16:43.128Z,1.90
2023-04-16T00:19:10.124Z,2.42
2023-04-16T00:21:37.261Z,1.92
2023-04-16T00:24:04.228Z,2.53
2023-04-16T00:26:31.518Z,2.10
2023-04-16T00:28:58.776Z,1.95
2023-04-16T00:31:33.374Z,2.30
2023-04-16T00:34:00.986Z,2.78
2023-04-16T00:36:28.505Z,2.80
2023-04-16T00:38:56.371Z,2.88
2023-04-16T00:41:23.671Z,2.30
2023-04-16T00:43:50.875Z,2.30
2023-04-16T00:46:19.586Z,2.70
2023-04-16T00:48:47.055Z,2.75
2023-04-16T00:51:14.116Z,2.85
2023-04-16T00:53:41.468Z,2.83
2023-04-16T00:56:09.058Z,2.70
2023-04-16T00:58:36.058Z,2.88
2023-04-16T01:01:03.034Z,2.53
2023-04-16T01:03:49.529Z,2.35
2023-04-16T01:06:17.722Z,2.05
2023-04-16T01:08:45.382Z,2.20
2023-04-16T01:11:12.347Z,2.42
2023-04-16T01:13:39.695Z,2.78
2023-04-16T01:16:08.519Z,2.72
2023-04-16T01:18:36.677Z,2.33
2023-04-16T01:21:04.151Z,2.08
2023-04-16T01:23:31.291Z,2.08
2023-04-16T01:25:58.133Z,2.28
2023-04-16T01:28:25.399Z,2.45
2023-04-16T01:30:52.358Z,2.67
2023-04-16T01:33:41.987Z,2.60
2023-04-16T01:36:10.756Z,2.63
2023-04-16T01:38:37.723Z,2.88
2023-04-16T01:41:04.642Z,2.58
2023-04-16T01:43:31.456Z,2.72
2023-04-16T01:46:31.031Z,2.83
2023-04-16T01:48:58.661Z,2.60
2023-04-16T01:51:25.728Z,3.10
2023-04-16T01:53:52.566Z,2.38
2023-04-16T01:56:19.547Z,2.67
2023-04-16T01:58:47.426Z,3.10
2023-04-16T02:01:16.182Z,2.45
2023-04-16T02:03:44.142Z,2.42
2023-04-16T02:06:11.105Z,2.80
2023-04-16T02:08:37.976Z,2.53
2023-04-16T02:11:04.876Z,2.45
2023-04-16T02:13:32.007Z,2.60
2023-04-16T02:15:59.299Z,3.08
2023-04-16T02:18:40.776Z,2.88
2023-04-16T02:21:07.896Z,3.42
2023-04-16T02:23:34.774Z,3.28
2023-04-16T02:26:03.454Z,3.80
2023-04-16T02:28:30.646Z,3.67
2023-04-16T02:30:57.624Z,3.60
2023-04-16T02:33:26.760Z,3.10
2023-04-16T02:35:59.341Z,3.03
2023-04-16T02:38:26.346Z,3.60
2023-04-16T02:40:53.201Z,2.75
2023-04-16T02:43:20.019Z,2.95
2023-04-16T02:45:46.848Z,3.38
2023-04-16T02:48:13.755Z,3.33
2023-04-16T02:50:40.720Z,3.80
2023-04-16T02:53:07.905Z,3.95
2023-04-16T02:55:34.768Z,3.65
2023-04-16T02:58:01.626Z,3.45
2023-04-16T03:00:28.479Z,2.95
2023-04-16T03:02:55.784Z,3.55
2023-04-16T03:05:22.782Z,3.33
2023-04-16T03:07:56.484Z,3.40
2023-04-16T03:10:24.104Z,3.10
2023-04-16T03:12:51.128Z,2.60
2023-04-16T03:15:18.092Z,2.85
2023-04-16T03:17:44.984Z,2.88
2023-04-16T03:20:12.108Z,2.90
2023-04-16T03:22:39.608Z,2.78
2023-04-16T03:25:07.927Z,2.63
2023-04-16T03:27:35.460Z,2.88
2023-04-16T03:30:03.422Z,3.45
2023-04-16T03:32:31.591Z,3.08
2023-04-16T03:34:58.632Z,3.30
2023-04-16T03:37:25.738Z,2.67
2023-04-16T03:39:52.805Z,3.05
2023-04-16T03:42:19.686Z,3.25
2023-04-16T03:44:46.570Z,2.90
2023-04-16T03:47:14.344Z,3.20
2023-04-16T03:49:41.217Z,3.65
2023-04-16T03:52:08.125Z,3.20
2023-04-16T03:54:35.079Z,3.00
2023-04-16T03:57:13.682Z,3.10
2023-04-16T03:59:40.751Z,2.95
2023-04-16T04:02:07.629Z,3.50
2023-04-16T04:04:34.726Z,4.15
2023-04-16T04:07:01.750Z,4.03
2023-04-16T04:09:28.650Z,3.67
2023-04-16T04:11:55.611Z,3.55
2023-04-16T04:14:22.576Z,4.22
2023-04-16T04:16:49.414Z,3.65
2023-04-16T04:19:16.278Z,3.30
2023-04-16T04:21:43.140Z,3.40
2023-04-16T04:24:10.170Z,2.95
2023-04-16T04:26:37.045Z,3.13
2023-04-16T04:29:03.937Z,4.40
2023-04-16T04:31:31.031Z,3.72
2023-04-16T04:33:58.052Z,4.40
2023-04-16T04:36:25.050Z,4.30
2023-04-16T04:38:52.268Z,4.82
2023-04-16T04:41:20.091Z,4.95
2023-04-16T04:43:47.445Z,4.88
2023-04-16T04:46:14.678Z,3.75
2023-04-16T04:48:41.535Z,4.63
2023-04-16T04:51:09.003Z,5.05
2023-04-16T04:53:36.017Z,4.03
2023-04-16T04:56:12.280Z,4.55
2023-04-16T04:58:41.503Z,4.05
2023-04-16T05:01:08.429Z,4.30
2023-04-16T05:03:35.520Z,4.95
2023-04-16T05:06:03.177Z,4.10
2023-04-16T05:08:34.475Z,4.55
2023-04-16T05:11:02.022Z,4.22
2023-04-16T05:13:28.830Z,4.60
2023-04-16T05:15:55.749Z,3.65
2023-04-16T05:18:22.687Z,4.30
2023-04-16T05:20:49.600Z,3.70
2023-04-16T05:23:16.479Z,3.42
2023-04-16T05:25:43.335Z,3.78
2023-04-16T05:28:10.674Z,3.90
2023-04-16T05:30:37.564Z,4.40
2023-04-16T05:33:04.442Z,4.95
2023-04-16T05:35:31.577Z,4.80
2023-04-16T05:37:58.401Z,4.72
2023-04-16T05:40:25.403Z,4.65
2023-04-16T05:42:52.264Z,4.28
2023-04-16T05:45:19.234Z,4.40
2023-04-16T05:47:46.221Z,3.70
2023-04-16T05:50:13.184Z,3.72
2023-04-16T05:52:40.083Z,3.45
2023-04-16T05:55:07.234Z,3.70
2023-04-16T05:57:34.064Z,3.80
2023-04-16T06:00:00.873Z,3.78
2023-04-16T06:02:27.882Z,4.15
2023-04-16T06:04:54.773Z,4.00
2023-04-16T06:07:21.620Z,3.65
2023-04-16T06:09:48.541Z,4.03
2023-04-16T06:12:15.472Z,4.10
2023-04-16T06:14:42.286Z,4.53
2023-04-16T06:17:09.609Z,4.55
2023-04-16T06:19:37.051Z,4.88
2023-04-16T06:22:06.696Z,5.32
2023-04-16T06:24:34.289Z,4.32
2023-04-16T06:27:01.749Z,4.80
2023-04-16T06:29:40.325Z,5.35
2023-04-16T06:32:08.704Z,5.53
2023-04-16T06:34:36.101Z,4.47
2023-04-16T06:37:02.975Z,4.70
2023-04-16T06:39:30.276Z,5.57
2023-04-16T06:41:57.295Z,5.07
2023-04-16T06:44:24.178Z,4.97
2023-04-16T06:46:51.598Z,5.13
2023-04-16T06:49:18.428Z,4.55
2023-04-16T06:51:45.555Z,4.47
2023-04-16T06:54:12.387Z,4.60
2023-04-16T06:56:39.274Z,4.95
2023-04-16T06:59:06.213Z,5.05
2023-04-16T07:01:33.458Z,5.50
2023-04-16T07:04:00.536Z,4.78
2023-04-16T07:06:27.793Z,5.22
2023-04-16T07:08:54.700Z,4.93
2023-04-16T07:11:22.527Z,4.90
2023-04-16T07:13:51.182Z,5.05
2023-04-16T07:16:18.360Z,5.80
2023-04-16T07:18:45.240Z,6.03
2023-04-16T07:21:12.191Z,5.70
2023-04-16T07:23:39.006Z,5.80
2023-04-16T07:26:05.979Z,5.63
2023-04-16T07:28:32.882Z,6.32
2023-04-16T07:31:00.377Z,5.47
2023-04-16T07:33:27.393Z,5.65
2023-04-16T07:35:54.427Z,4.60
2023-04-16T07:38:21.251Z,4.80
2023-04-16T07:40:48.100Z,4.80
2023-04-16T07:43:16.393Z,5.32
2023-04-16T07:45:43.299Z,4.85
2023-04-16T07:48:10.267Z,5.45
2023-04-16T07:50:37.261Z,6.80
2023-04-16T07:53:05.887Z,5.25
2023-04-16T07:55:32.719Z,5.88
2023-04-16T07:57:59.594Z,6.53
2023-04-16T08:00:26.612Z,5.70
2023-04-16T08:02:53.705Z,5.07
2023-04-16T08:05:21.026Z,6.30
2023-04-16T08:07:47.927Z,5.80
2023-04-16T08:10:14.826Z,6.50
2023-04-16T08:12:41.883Z,6.07
2023-04-16T08:15:09.141Z,5.53
2023-04-16T08:17:37.625Z,5.07
2023-04-16T08:20:05.907Z,6.13
2023-04-16T08:22:33.541Z,5.00
2023-04-16T08:25:00.622Z,4.90
2023-04-16T08:27:27.465Z,5.35
2023-04-16T08:29:54.273Z,5.05
2023-04-16T08:32:21.206Z,5.63
2023-04-16T08:34:48.110Z,4.97
2023-04-16T08:37:15.038Z,5.72
2023-04-16T08:39:41.886Z,4.97
2023-04-16T08:42:14.180Z,5.70
2023-04-16T08:44:48.909Z,5.00
2023-04-16T08:47:16.425Z,5.13
2023-04-16T08:49:45.640Z,5.43
2023-04-16T08:52:20.198Z,5.75
2023-04-16T08:54:56.577Z,5.20
2023-04-16T08:57:26.848Z,5.43
2023-04-16T08:59:55.907Z,4.88
2023-04-16T09:02:23.527Z,4.57
2023-04-16T09:04:51.453Z,5.03
2023-04-16T09:07:20.766Z,4.60
2023-04-16T09:09:50.071Z,5.40
2023-04-16T09:12:17.906Z,5.00
2023-04-16T09:14:49.597Z,5.38
2023-04-16T09:17:17.022Z,4.07
2023-04-16T09:19:44.466Z,4.70
2023-04-16T09:22:12.002Z,5.43
2023-04-16T09:24:38.851Z,4.82
2023-04-16T09:27:07.598Z,4.25
2023-04-16T09:29:36.425Z,4.50
2023-04-16T09:32:12.171Z,5.40
2023-04-16T09:34:59.877Z,4.60
2023-04-16T09:37:29.870Z,3.92
2023-04-16T09:40:04.659Z,5.05
2023-04-16T09:42:33.579Z,4.75
2023-04-16T09:45:02.631Z,4.85
2023-04-16T09:47:45.538Z,4.82
2023-04-16T09:50:18.656Z,4.30
2023-04-16T09:52:48.959Z,4.70
2023-04-16T09:55:16.030Z,4.15
2023-04-16T09:57:42.869Z,5.00
2023-04-16T10:00:11.300Z,4.25
2023-04-16T10:02:42.118Z,4.28
2023-04-16T10:05:09.710Z,4.53
2023-04-16T10:07:37.493Z,4.70
2023-04-16T10:10:05.387Z,4.30
2023-04-16T10:12:35.719Z,4.57
2023-04-16T10:15:02.646Z,4.20
2023-04-16T10:17:31.579Z,5.32
2023-04-16T10:19:59.042Z,4.45
2023-04-16T10:22:26.669Z,5.65
2023-04-16T10:24:53.876Z,5.07
2023-04-16T10:27:21.264Z,5.80
2023-04-16T10:29:49.146Z,4.93
2023-04-16T10:32:17.358Z,5.20
2023-04-16T10:34:44.470Z,4.47
2023-04-16T10:37:11.283Z,4.05
2023-04-16T10:39:38.484Z,4.53
2023-04-16T10:42:10.786Z,4.63
2023-04-16T10:44:38.000Z,4.75
2023-04-16T10:47:12.412Z,4.82
2023-04-16T10:52:19.520Z,3.97
2023-04-16T10:54:48.402Z,4.93
2023-04-16T10:57:20.672Z,5.00
2023-04-16T10:59:49.070Z,4.72
2023-04-16T11:02:19.668Z,5.47
2023-04-16T11:04:48.236Z,5.55
2023-04-16T11:07:31.799Z,4.97
2023-04-16T11:10:00.571Z,5.22
2023-04-16T11:12:40.378Z,5.20
2023-04-16T11:15:14.597Z,6.85
2023-04-16T11:17:46.714Z,7.20
2023-04-16T11:20:20.563Z,6.47
2023-04-16T11:22:54.843Z,5.78
2023-04-16T11:25:25.298Z,6.20
2023-04-16T11:27:53.334Z,5.13
2023-04-16T11:30:31.248Z,6.85
2023-04-16T11:32:58.261Z,8.63
2023-04-16T11:35:25.581Z,16.27
2023-04-16T11:37:57.157Z,15.25
2023-04-16T11:40:24.448Z,14.73
2023-04-16T11:42:51.330Z,11.07
2023-04-16T11:45:21.133Z,9.18
2023-04-16T11:47:52.146Z,7.60
2023-04-16T11:50:21.497Z,6.85
2023-04-16T11:52:49.445Z,6.78
2023-04-16T11:55:16.754Z,6.13
2023-04-16T11:57:43.893Z,6.00
2023-04-16T12:00:14.007Z,5.88
2023-04-16T12:02:54.334Z,6.13
2023-04-16T12:05:38.912Z,6.38
2023-04-16T12:08:08.638Z,5.43
2023-04-16T12:10:38.027Z,6.22
2023-04-16T12:13:12.724Z,7.30
2023-04-16T12:15:53.262Z,5.93
2023-04-16T12:18:23.028Z,6.65
2023-04-16T12:20:53.425Z,7.03
2023-04-16T12:23:32.852Z,6.85
2023-04-16T12:26:10.641Z,6.93
2023-04-16T12:28:39.628Z,7.13
2023-04-16T12:31:07.523Z,7.03
2023-04-16T12:33:34.561Z,6.85
2023-04-16T12:36:02.205Z,6.53
2023-04-16T12:38:30.093Z,6.32
2023-04-16T12:40:58.330Z,6.53
2023-04-16T12:43:26.283Z,7.07
2023-04-16T12:45:53.359Z,7.45
2023-04-16T12:48:20.335Z,7.15
2023-04-16T12:50:47.810Z,6.97
2023-04-16T12:53:14.918Z,6.32
2023-04-16T12:55:42.172Z,6.10
2023-04-16T12:58:11.875Z,6.85
2023-04-16T13:00:40.391Z,6.45
2023-04-16T13:03:07.910Z,5.90
2023-04-16T13:05:35.104Z,6.13
2023-04-16T13:08:02.208Z,5.97
2023-04-16T13:10:29.199Z,6.05
2023-04-16T13:12:56.437Z,6.35
2023-04-16T13:15:23.532Z,5.45
2023-04-16T13:17:50.482Z,7.03
2023-04-16T13:20:17.506Z,6.50
2023-04-16T13:22:44.493Z,7.47
2023-04-16T13:25:11.620Z,6.50
2023-04-16T13:27:38.508Z,6.97
2023-04-16T13:30:06.569Z,6.72
2023-04-16T13:32:33.648Z,5.68
2023-04-16T13:35:00.773Z,6.30
2023-04-16T13:37:27.679Z,6.43
2023-04-16T13:39:54.545Z,6.43
2023-04-16T13:42:22.135Z,6.35
2023-04-16T13:44:53.054Z,6.22
2023-04-16T13:47:19.992Z,6.10
2023-04-16T13:49:47.647Z,6.53
2023-04-16T13:52:14.599Z,6.40
2023-04-16T13:54:41.603Z,6.13
2023-04-16T13:57:19.859Z,5.45
2023-04-16T13:59:46.828Z,5.50
2023-04-16T14:02:13.780Z,6.60
2023-04-16T14:04:40.653Z,7.13
2023-04-16T14:07:07.464Z,7.32
2023-04-16T14:09:34.309Z,7.35
2023-04-16T14:12:01.241Z,7.18
2023-04-16T14:14:28.122Z,7.55
2023-04-16T14:16:55.727Z,6.45
2023-04-16T14:19:22.653Z,8.00
2023-04-16T14:21:49.507Z,7.78
2023-04-16T14:24:16.370Z,7.35
2023-04-16T14:26:44.053Z,7.03
2023-04-16T14:29:11.207Z,6.65
2023-04-16T14:31:38.312Z,7.88
2023-04-16T14:34:05.445Z,7.72
2023-04-16T14:36:32.251Z,7.70
2023-04-16T14:38:59.118Z,8.50
2023-04-16T14:41:26.013Z,7.40
2023-04-16T14:43:52.979Z,7.80
2023-04-16T14:46:20.033Z,7.95
2023-04-16T14:48:46.932Z,7.50
2023-04-16T14:51:13.806Z,7.60
2023-04-16T14:53:40.755Z,8.57
2023-04-16T14:56:07.765Z,8.18
2023-04-16T14:58:37.837Z,8.27
2023-04-16T15:01:06.107Z,8.07
2023-04-16T15:03:33.317Z,8.23
2023-04-16T15:06:00.489Z,8.48
2023-04-16T15:08:27.343Z,8.40
2023-04-16T15:10:54.246Z,8.35
2023-04-16T15:13:21.138Z,8.23
2023-04-16T15:15:48.058Z,8.75
2023-04-16T15:18:16.378Z,7.93
2023-04-16T15:20:44.339Z,8.50
2023-04-16T15:23:11.207Z,8.63
2023-04-16T15:25:38.050Z,9.00
2023-04-16T15:28:06.703Z,8.77
2023-04-16T15:30:33.748Z,9.48
2023-04-16T15:33:01.045Z,8.45
2023-04-16T15:35:27.950Z,10.02
2023-04-16T15:37:55.427Z,8.73
2023-04-16T15:40:22.558Z,9.45
2023-04-16T15:42:49.510Z,9.43
2023-04-16T15:45:16.483Z,8.93
2023-04-16T15:47:45.381Z,8.20
2023-04-16T15:50:12.348Z,9.00
2023-04-16T15:52:40.284Z,7.25
2023-04-16T15:55:07.586Z,7.72
2023-04-16T15:57:34.394Z,8.35
2023-04-16T16:00:06.331Z,8.90
2023-04-16T16:02:34.617Z,8.52
2023-04-16T16:05:01.776Z,8.25
2023-04-16T16:07:28.694Z,8.20
2023-04-16T16:09:56.337Z,7.90
2023-04-16T16:12:23.493Z,8.32
2023-04-16T16:14:50.366Z,8.57
2023-04-16T16:17:18.350Z,8.95
2023-04-16T16:19:46.475Z,7.95
2023-04-16T16:22:13.940Z,9.07
2023-04-16T16:24:40.798Z,9.43
2023-04-16T16:27:07.687Z,9.43
2023-04-16T16:29:34.464Z,8.73
2023-04-16T16:32:01.377Z,9.07
2023-04-16T16:34:28.331Z,8.35
2023-04-16T16:36:55.461Z,7.43
2023-04-16T16:39:24.497Z,8.55
2023-04-16T16:41:54.197Z,9.30
2023-04-16T16:44:21.752Z,9.55
2023-04-16T16:46:49.264Z,8.88
2023-04-16T16:49:17.246Z,9.15
2023-04-16T16:51:48.250Z,9.40
2023-04-16T16:54:15.486Z,8.88
2023-04-16T16:56:42.481Z,9.95
2023-04-16T16:59:10.062Z,7.88
2023-04-16T17:01:37.560Z,8.80
2023-04-16T17:04:05.627Z,9.23
2023-04-16T17:06:33.409Z,8.63
2023-04-16T17:09:01.325Z,9.95
2023-04-16T17:11:29.317Z,9.55
2023-04-16T17:13:56.491Z,11.13
2023-04-16T17:16:24.024Z,10.75
2023-04-16T17:18:50.991Z,9.52
2023-04-16T17:21:17.841Z,9.63
2023-04-16T17:23:44.907Z,9.45
2023-04-16T17:26:11.834Z,9.40
2023-04-16T17:28:40.369Z,9.50
2023-04-16T17:31:08.684Z,9.57
2023-04-16T17:33:36.044Z,9.80
2023-04-16T17:36:03.027Z,9.55
2023-04-16T17:38:30.485Z,9.45
2023-04-16T17:40:58.302Z,9.43
2023-04-16T17:43:25.374Z,9.80
2023-04-16T17:45:52.242Z,8.90
2023-04-16T17:48:19.617Z,9.73
2023-04-16T17:50:46.643Z,9.13
2023-04-16T17:53:13.603Z,9.95
2023-04-16T17:55:42.775Z,9.52
2023-04-16T17:58:09.651Z,9.25
2023-04-16T18:00:36.566Z,9.35
2023-04-16T18:03:04.072Z,10.00
2023-04-16T18:05:31.397Z,9.57
2023-04-16T18:07:58.761Z,9.38
2023-04-16T18:10:25.784Z,9.13
2023-04-16T18:12:52.949Z,9.32
2023-04-16T18:15:20.106Z,10.27
2023-04-16T18:17:47.104Z,9.48
2023-04-16T18:20:16.978Z,8.93
2023-04-16T18:22:43.920Z,9.10
2023-04-16T18:25:10.766Z,8.98
2023-04-16T18:27:38.709Z,9.50
2023-04-16T18:30:06.744Z,9.07
2023-04-16T18:32:35.036Z,9.13
2023-04-16T18:35:02.669Z,8.77
2023-04-16T18:37:30.062Z,8.82
2023-04-16T18:39:58.014Z,9.38
2023-04-16T18:42:28.126Z,9.27
2023-04-16T18:44:55.636Z,9.02
2023-04-16T18:47:23.000Z,9.35
2023-04-16T18:49:50.001Z,9.02
2023-04-16T18:52:16.946Z,8.98
2023-04-16T18:54:44.027Z,9.60
2023-04-16T18:57:11.142Z,9.20
2023-04-16T18:59:37.903Z,8.27
2023-04-16T19:02:04.824Z,9.07
2023-04-16T19:04:32.066Z,9.00
2023-04-16T19:06:59.419Z,8.90
2023-04-16T19:09:27.319Z,8.80
2023-04-16T19:11:54.225Z,7.80
2023-04-16T19:14:21.346Z,8.30
2023-04-16T19:16:48.347Z,8.80
2023-04-16T19:19:16.872Z,8.25
2023-04-16T19:21:43.915Z,8.40
2023-04-16T19:24:10.905Z,8.65
2023-04-16T19:26:38.037Z,9.57
2023-04-16T19:29:04.851Z,8.35
2023-04-16T19:31:31.824Z,8.68
2023-04-16T19:33:59.027Z,8.40
2023-04-16T19:36:26.554Z,8.18
2023-04-16T19:38:53.748Z,8.70
2023-04-16T19:41:20.785Z,9.45
2023-04-16T19:43:47.592Z,8.40
2023-04-16T19:46:15.566Z,9.55
2023-04-16T19:48:42.562Z,9.43
2023-04-16T19:51:09.572Z,8.90
2023-04-16T19:53:36.521Z,8.73
2023-04-16T19:56:03.394Z,9.18
2023-04-16T19:58:30.271Z,8.48
2023-04-16T20:00:57.180Z,10.93
2023-04-16T20:03:24.150Z,10.23
2023-04-16T20:05:51.052Z,9.75
2023-04-16T20:08:17.915Z,9.02
2023-04-16T20:10:45.326Z,9.52
2023-04-16T20:13:13.637Z,9.75
2023-04-16T20:15:40.493Z,9.23
2023-04-16T20:18:08.761Z,10.10
2023-04-16T20:20:37.886Z,9.65
2023-04-16T20:23:05.224Z,9.20
2023-04-16T20:25:32.098Z,9.15
2023-04-16T20:27:58.916Z,9.45
2023-04-16T20:30:29.434Z,9.40
2023-04-16T20:32:56.533Z,10.00
2023-04-16T20:35:23.645Z,9.55
2023-04-16T20:37:50.479Z,10.13
2023-04-16T20:40:17.460Z,9.57
2023-04-16T20:42:46.285Z,8.75
2023-04-16T20:45:13.416Z,10.20
2023-04-16T20:47:40.475Z,9.32
2023-04-16T20:50:08.001Z,10.13
2023-04-16T20:52:34.835Z,10.70
2023-04-16T20:55:01.712Z,8.90
2023-04-16T20:57:29.732Z,8.82
2023-04-16T20:59:56.677Z,8.75
2023-04-16T21:02:24.341Z,8.90
2023-04-16T21:04:51.424Z,9.88
2023-04-16T21:07:18.347Z,8.95
2023-04-16T21:09:45.520Z,8.43
2023-04-16T21:12:12.460Z,8.48
2023-04-16T21:14:39.620Z,8.45
2023-04-16T21:17:06.581Z,8.65
2023-04-16T21:19:33.424Z,8.35
2023-04-16T21:22:02.472Z,9.93
2023-04-16T21:24:29.368Z,9.02
2023-04-16T21:26:57.361Z,8.40
2023-04-16T21:29:24.201Z,8.40
2023-04-16T21:31:51.156Z,8.82
2023-04-16T21:34:18.358Z,7.15
2023-04-16T21:36:45.296Z,8.32
2023-04-16T21:39:12.430Z,8.70
2023-04-16T21:41:39.551Z,8.35
2023-04-16T21:44:06.457Z,8.35
2023-04-16T21:46:33.349Z,9.00
2023-04-16T21:49:00.761Z,8.30
2023-04-16T21:51:30.569Z,8.43
2023-04-16T21:53:57.783Z,8.82
2023-04-16T21:56:26.051Z,8.65
2023-04-16T21:58:52.925Z,7.47
2023-04-16T22:01:19.882Z,8.38
2023-04-16T22:03:50.747Z,10.00
2023-04-16T22:06:18.424Z,8.43
2023-04-16T22:08:45.354Z,9.50
2023-04-16T22:11:12.288Z,8.95
2023-04-16T22:13:41.961Z,9.77
2023-04-16T22:16:11.522Z,9.23
2023-04-16T22:18:38.857Z,8.52
2023-04-16T22:21:05.817Z,8.68
2023-04-16T22:23:32.836Z,8.98
2023-04-16T22:25:59.720Z,8.30
2023-04-16T22:28:27.251Z,9.63
2023-04-16T22:30:54.151Z,9.93
2023-04-16T22:33:20.959Z,8.68
2023-04-16T22:35:47.874Z,7.90
2023-04-16T22:38:14.741Z,8.73
2023-04-16T22:40:41.642Z,8.88
2023-04-16T22:43:08.553Z,8.50
2023-04-16T22:45:35.779Z,7.97
2023-04-16T22:48:02.928Z,7.95
2023-04-16T22:50:31.379Z,8.30
2023-04-16T22:52:58.479Z,8.23
2023-04-16T22:55:25.529Z,7.93
2023-04-16T22:57:52.461Z,8.07
2023-04-16T23:00:19.518Z,8.50
2023-04-16T23:02:46.537Z,8.80
2023-04-16T23:05:13.576Z,8.68
2023-04-16T23:07:40.557Z,8.57
2023-04-16T23:10:08.656Z,7.78
2023-04-16T23:12:38.864Z,7.88
2023-04-16T23:15:06.830Z,8.02
2023-04-16T23:17:35.045Z,8.40
2023-04-16T23:20:02.604Z,7.45
2023-04-16T23:22:29.640Z,7.63
2023-04-16T23:24:56.889Z,7.95
2023-04-16T23:27:23.865Z,7.82
2023-04-16T23:29:50.758Z,7.78
2023-04-16T23:32:17.868Z,7.72
2023-04-16T23:34:45.029Z,8.15
2023-04-16T23:37:12.093Z,8.00
2023-04-16T23:39:38.984Z,7.80
2023-04-16T23:42:06.086Z,7.75
2023-04-16T23:44:33.425Z,7.20
2023-04-16T23:47:00.854Z,8.40
2023-04-16T23:49:27.992Z,7.50
2023-04-16T23:51:54.878Z,6.50
2023-04-16T23:54:21.720Z,7.07
2023-04-16T23:56:48.591Z,7.78
2023-04-16T23:59:16.799Z,7.50
